Time,TemperatureF,DewpointF,PressureIn,WindDirection,WindDirectionDegrees,WindSpeedMPH,WindSpeedGustMPH,Humidity,HourlyPrecipIn,Conditions,Clouds,dailyrainin,SoftwareType,DateUTC
2013-10-17 00:00:00,56.0,31.3,30.04,WSW,248,0.0,0.0,39,0.00,,,-99.99,Weather View 32 v70,2013-10-17 07:00:00,
2013-10-17 00:15:00,57.0,30.9,30.04,WSW,248,0.0,0.0,37,0.00,,,-99.99,Weather View 32 v70,2013-10-17 07:15:00,
2013-10-17 00:30:00,57.0,30.9,30.04,WSW,248,0.0,0.0,37,0.00,,,-99.99,Weather View 32 v70,2013-10-17 07:30:00,
2013-10-17 00:45:00,56.0,31.3,30.05,WSW,248,0.0,0.0,39,0.00,,,-99.99,Weather View 32 v70,2013-10-17 07:45:00,
2013-10-17 01:00:00,55.0,30.4,30.05,WSW,248,0.0,0.0,39,0.00,,,-99.99,Weather View 32 v70,2013-10-17 08:00:00,
2013-10-17 01:15:00,52.0,31.3,30.05,WSW,248,0.0,0.0,45,0.00,,,-99.99,Weather View 32 v70,2013-10-17 08:15:00,
2013-10-17 01:30:00,53.0,32.2,30.05,WSW,248,0.0,0.0,45,0.00,,,-99.99,Weather View 32 v70,2013-10-17 08:30:00,
2013-10-17 01:45:00,52.0,32.4,30.05,WSW,248,0.0,0.0,47,0.00,,,-99.99,Weather View 32 v70,2013-10-17 08:45:00,
2013-10-17 02:00:00,53.0,32.7,30.04,WSW,248,0.0,0.0,46,0.00,,,-99.99,Weather View 32 v70,2013-10-17 09:00:00,
2013-10-17 02:15:00,53.0,32.2,30.03,WSW,248,0.0,0.0,45,0.00,,,-99.99,Weather View 32 v70,2013-10-17 09:15:00,
2013-10-17 02:30:00,52.0,31.8,30.03,WSW,248,0.0,0.0,46,0.00,,,-99.99,Weather View 32 v70,2013-10-17 09:30:00,
2013-10-17 02:45:00,51.0,32.0,30.03,WSW,248,0.0,0.0,48,0.00,,,-99.99,Weather View 32 v70,2013-10-17 09:45:00,
2013-10-17 03:00:00,52.0,32.9,30.02,WSW,248,0.0,0.0,48,0.00,,,-99.99,Weather View 32 v70,2013-10-17 10:00:00,
2013-10-17 03:15:00,50.0,32.1,30.02,WSW,248,0.0,0.0,50,0.00,,,-99.99,Weather View 32 v70,2013-10-17 10:15:00,
2013-10-17 03:30:00,49.0,33.0,30.02,WSW,248,0.0,0.0,54,0.00,,,-99.99,Weather View 32 v70,2013-10-17 10:30:00,
2013-10-17 03:45:00,51.0,34.4,30.02,WSW,248,0.0,0.0,53,0.00,,,-99.99,Weather View 32 v70,2013-10-17 10:45:00,
2013-10-17 04:00:00,52.0,33.9,30.01,WSW,248,0.0,0.0,50,0.00,,,-99.99,Weather View 32 v70,2013-10-17 11:00:00,
2013-10-17 04:15:00,50.0,33.0,30.01,WSW,248,0.0,0.0,52,0.00,,,-99.99,Weather View 32 v70,2013-10-17 11:15:00,
2013-10-17 04:30:00,47.0,32.5,30.01,WSW,248,0.0,0.0,57,0.00,,,-99.99,Weather View 32 v70,2013-10-17 11:30:00,
2013-10-17 04:45:00,47.0,33.8,30.01,WSW,248,0.0,0.0,60,0.00,,,-99.99,Weather View 32 v70,2013-10-17 11:45:00,
2013-10-17 05:00:00,48.0,35.2,30.01,WSW,248,0.0,0.0,61,0.00,,,-99.99,Weather View 32 v70,2013-10-17 12:00:00,
2013-10-17 05:15:00,46.0,32.0,30.01,WSW,248,0.0,0.0,58,0.00,,,-99.99,Weather View 32 v70,2013-10-17 12:15:00,
2013-10-17 05:30:00,45.0,33.9,30.01,WSW,248,0.0,0.0,65,0.00,,,-99.99,Weather View 32 v70,2013-10-17 12:30:00,
2013-10-17 05:45:00,45.0,33.5,30.01,WSW,248,0.0,0.0,64,0.00,,,-99.99,Weather View 32 v70,2013-10-17 12:45:00,
2013-10-17 06:00:00,46.0,34.1,30.02,WSW,248,0.0,0.0,63,0.00,,,-99.99,Weather View 32 v70,2013-10-17 13:00:00,
2013-10-17 06:15:00,47.0,33.8,30.01,WSW,248,0.0,0.0,60,0.00,,,-99.99,Weather View 32 v70,2013-10-17 13:15:00,
2013-10-17 06:30:00,47.0,34.2,30.01,WSW,248,0.0,0.0,61,0.00,,,-99.99,Weather View 32 v70,2013-10-17 13:30:00,
2013-10-17 06:45:00,45.0,33.1,30.01,WSW,248,0.0,0.0,63,0.00,,,-99.99,Weather View 32 v70,2013-10-17 13:45:00,
2013-10-17 07:00:00,46.0,33.7,30.01,WSW,248,0.0,0.0,62,0.00,,,-99.99,Weather View 32 v70,2013-10-17 14:00:00,
2013-10-17 07:15:00,46.0,33.3,30.01,WSW,248,0.0,0.0,61,0.00,,,-99.99,Weather View 32 v70,2013-10-17 14:15:00,
2013-10-17 07:30:00,46.0,32.9,30.02,WSW,248,0.0,0.0,60,0.00,,,-99.99,Weather View 32 v70,2013-10-17 14:30:00,
2013-10-17 07:45:00,45.0,33.5,30.02,WSW,248,0.0,0.0,64,0.00,,,-99.99,Weather View 32 v70,2013-10-17 14:45:00,
2013-10-17 08:00:00,45.0,33.5,30.01,WSW,248,0.0,0.0,64,0.00,,,-99.99,Weather View 32 v70,2013-10-17 15:00:00,
2013-10-17 08:15:00,46.0,33.7,30.01,WSW,248,0.0,0.0,62,0.00,,,-99.99,Weather View 32 v70,2013-10-17 15:15:00,
2013-10-17 08:30:00,49.0,34.4,30.02,WSW,248,0.0,0.0,57,0.00,,,-99.99,Weather View 32 v70,2013-10-17 15:30:00,
2013-10-17 08:45:00,51.0,35.8,30.03,WSW,248,0.0,0.0,56,0.00,,,-99.99,Weather View 32 v70,2013-10-17 15:45:00,
2013-10-17 09:00:00,52.0,34.9,30.03,WSW,248,0.0,0.0,52,0.00,,,-99.99,Weather View 32 v70,2013-10-17 16:00:00,
2013-10-17 09:15:00,54.0,35.7,30.03,WSW,248,0.0,0.0,50,0.00,,,-99.99,Weather View 32 v70,2013-10-17 16:15:00,
2013-10-17 09:30:00,56.0,35.5,30.04,WSW,248,0.0,0.0,46,0.00,,,-99.99,Weather View 32 v70,2013-10-17 16:30:00,
2013-10-17 09:45:00,58.0,33.8,30.04,WSW,248,0.0,0.0,40,0.00,,,-99.99,Weather View 32 v70,2013-10-17 16:45:00,
2013-10-17 10:00:00,60.0,33.6,30.04,WSW,248,0.0,0.0,37,0.00,,,-99.99,Weather View 32 v70,2013-10-17 17:00:00,
2013-10-17 10:15:00,63.0,34.9,30.04,WSW,248,0.0,0.0,35,0.00,,,-99.99,Weather View 32 v70,2013-10-17 17:15:00,
2013-10-17 10:30:00,65.0,35.1,30.04,WSW,248,0.0,0.0,33,0.00,,,-99.99,Weather View 32 v70,2013-10-17 17:30:00,
2013-10-17 10:45:00,66.0,34.4,30.04,WSW,248,0.0,0.0,31,0.00,,,-99.99,Weather View 32 v70,2013-10-17 17:45:00,
2013-10-17 11:00:00,68.0,34.5,30.05,WSW,248,0.0,0.0,29,0.00,,,-99.99,Weather View 32 v70,2013-10-17 18:00:00,
2013-10-17 11:15:00,69.0,34.5,30.05,WSW,248,0.0,0.0,28,0.00,,,-99.99,Weather View 32 v70,2013-10-17 18:15:00,
2013-10-17 11:30:00,71.0,35.3,30.05,WSW,248,0.0,0.0,27,0.00,,,-99.99,Weather View 32 v70,2013-10-17 18:30:00,
2013-10-17 11:45:00,72.0,35.2,30.05,WSW,248,0.0,0.0,26,0.00,,,-99.99,Weather View 32 v70,2013-10-17 18:45:00,
2013-10-17 12:00:00,73.0,36.0,30.05,WSW,248,0.0,0.0,26,0.00,,,-99.99,Weather View 32 v70,2013-10-17 19:00:00,
2013-10-17 12:15:00,72.0,35.2,30.05,WSW,248,0.0,0.0,26,0.00,,,-99.99,Weather View 32 v70,2013-10-17 19:15:00,
2013-10-17 12:30:00,74.0,35.9,30.05,WSW,248,0.0,0.0,25,0.00,,,-99.99,Weather View 32 v70,2013-10-17 19:30:00,
2013-10-17 12:45:00,75.0,35.7,30.05,WSW,248,0.0,0.0,24,0.00,,,-99.99,Weather View 32 v70,2013-10-17 19:45:00,
2013-10-17 13:00:00,76.0,35.4,30.04,WSW,248,0.0,0.0,23,0.00,,,-99.99,Weather View 32 v70,2013-10-17 20:00:00,
2013-10-17 13:15:00,77.0,36.3,30.04,WSW,248,0.0,0.0,23,0.00,,,-99.99,Weather View 32 v70,2013-10-17 20:15:00,
2013-10-17 13:30:00,77.0,36.3,30.05,WSW,248,0.0,0.0,23,0.00,,,-99.99,Weather View 32 v70,2013-10-17 20:30:00,
2013-10-17 13:45:00,77.0,34.0,30.05,WSW,248,0.0,0.0,21,0.00,,,-99.99,Weather View 32 v70,2013-10-17 20:45:00,
2013-10-17 14:00:00,77.0,35.1,30.04,WSW,248,0.0,0.0,22,0.00,,,-99.99,Weather View 32 v70,2013-10-17 21:00:00,
2013-10-17 14:15:00,78.0,34.8,30.04,WSW,248,0.0,0.0,21,0.00,,,-99.99,Weather View 32 v70,2013-10-17 21:15:00,
2013-10-17 14:30:00,79.0,35.6,30.05,WSW,248,0.0,0.0,21,0.00,,,-99.99,Weather View 32 v70,2013-10-17 21:30:00,
2013-10-17 14:45:00,79.0,34.4,30.05,WSW,248,0.0,0.0,20,0.00,,,-99.99,Weather View 32 v70,2013-10-17 21:45:00,
2013-10-17 15:00:00,79.0,35.6,30.05,WSW,248,0.0,0.0,21,0.00,,,-99.99,Weather View 32 v70,2013-10-17 22:00:00,
2013-10-17 15:15:00,78.0,34.8,30.05,WSW,248,0.0,0.0,21,0.00,,,-99.99,Weather View 32 v70,2013-10-17 22:15:00,
2013-10-17 15:30:00,78.0,34.8,30.05,WSW,248,0.0,0.0,21,0.00,,,-99.99,Weather View 32 v70,2013-10-17 22:30:00,
2013-10-17 15:45:00,78.0,34.8,30.06,WSW,248,0.0,0.0,21,0.00,,,-99.99,Weather View 32 v70,2013-10-17 22:45:00,
2013-10-17 16:00:00,78.0,37.1,30.06,WSW,248,0.0,0.0,23,0.00,,,-99.99,Weather View 32 v70,2013-10-17 23:00:00,
2013-10-17 16:15:00,78.0,38.2,30.06,WSW,248,0.0,0.0,24,0.00,,,-99.99,Weather View 32 v70,2013-10-17 23:15:00,
2013-10-17 16:30:00,78.0,38.2,30.06,WSW,248,0.0,0.0,24,0.00,,,-99.99,Weather View 32 v70,2013-10-17 23:30:00,
2013-10-17 16:45:00,78.0,36.0,30.06,WSW,248,0.0,0.0,22,0.00,,,-99.99,Weather View 32 v70,2013-10-17 23:45:00,
2013-10-17 17:00:00,78.0,36.0,30.07,WSW,248,0.0,0.0,22,0.00,,,-99.99,Weather View 32 v70,2013-10-18 00:00:00,
2013-10-17 17:15:00,78.0,32.3,30.07,WSW,248,0.0,0.0,19,0.00,,,-99.99,Weather View 32 v70,2013-10-18 00:15:00,
2013-10-17 17:30:00,76.0,30.7,30.07,WSW,248,0.0,0.0,19,0.00,,,-99.99,Weather View 32 v70,2013-10-18 00:30:00,
2013-10-17 17:45:00,75.0,31.1,30.06,WSW,248,0.0,0.0,20,0.00,,,-99.99,Weather View 32 v70,2013-10-18 00:45:00,
2013-10-17 18:00:00,73.0,30.7,30.06,WSW,248,0.0,0.0,21,0.00,,,-99.99,Weather View 32 v70,2013-10-18 01:00:00,
2013-10-17 18:15:00,72.0,31.0,30.05,WSW,248,0.0,0.0,22,0.00,,,-99.99,Weather View 32 v70,2013-10-18 01:15:00,
2013-10-17 18:30:00,71.0,30.1,30.05,WSW,248,0.0,0.0,22,0.00,,,-99.99,Weather View 32 v70,2013-10-18 01:30:00,
2013-10-17 18:45:00,70.0,28.2,30.04,WSW,248,0.0,0.0,21,0.00,,,-99.99,Weather View 32 v70,2013-10-18 01:45:00,
2013-10-17 19:00:00,69.0,28.5,30.04,WSW,248,0.0,0.0,22,0.00,,,-99.99,Weather View 32 v70,2013-10-18 02:00:00,
2013-10-17 19:15:00,68.0,28.7,30.04,WSW,248,0.0,0.0,23,0.00,,,-99.99,Weather View 32 v70,2013-10-18 02:15:00,
2013-10-17 19:30:00,67.0,29.9,30.03,WSW,248,0.0,0.0,25,0.00,,,-99.99,Weather View 32 v70,2013-10-18 02:30:00,
2013-10-17 19:45:00,64.0,31.9,30.03,WSW,248,0.0,0.0,30,0.00,,,-99.99,Weather View 32 v70,2013-10-18 02:45:00,
2013-10-17 20:00:00,63.0,34.1,30.03,WSW,248,0.0,0.0,34,0.00,,,-99.99,Weather View 32 v70,2013-10-18 03:00:00,
2013-10-17 20:15:00,62.0,35.4,30.02,WSW,248,0.0,0.0,37,0.00,,,-99.99,Weather View 32 v70,2013-10-18 03:15:00,
2013-10-17 20:30:00,62.0,36.7,30.02,WSW,248,0.0,0.0,39,0.00,,,-99.99,Weather View 32 v70,2013-10-18 03:30:00,
2013-10-17 20:45:00,61.0,37.1,30.03,WSW,248,0.0,0.0,41,0.00,,,-99.99,Weather View 32 v70,2013-10-18 03:45:00,
2013-10-17 21:00:00,61.0,37.7,30.02,WSW,248,0.0,0.0,42,0.00,,,-99.99,Weather View 32 v70,2013-10-18 04:00:00,
2013-10-17 21:15:00,61.0,39.5,30.02,WSW,248,0.0,0.0,45,0.00,,,-99.99,Weather View 32 v70,2013-10-18 04:15:00,
2013-10-17 21:30:00,60.0,39.7,30.02,WSW,248,0.0,0.0,47,0.00,,,-99.99,Weather View 32 v70,2013-10-18 04:30:00,
2013-10-17 21:45:00,60.0,40.7,30.03,WSW,248,0.0,0.0,49,0.00,,,-99.99,Weather View 32 v70,2013-10-18 04:45:00,
2013-10-17 22:00:00,59.0,40.9,30.02,WSW,248,0.0,0.0,51,0.00,,,-99.99,Weather View 32 v70,2013-10-18 05:00:00,
2013-10-17 22:15:00,59.0,41.4,30.02,WSW,248,0.0,0.0,52,0.00,,,-99.99,Weather View 32 v70,2013-10-18 05:15:00,
2013-10-17 22:30:00,59.0,41.9,30.02,WSW,248,0.0,0.0,53,0.00,,,-99.99,Weather View 32 v70,2013-10-18 05:30:00,
2013-10-17 22:45:00,58.0,42.8,30.02,WSW,248,0.0,0.0,57,0.00,,,-99.99,Weather View 32 v70,2013-10-18 05:45:00,
2013-10-17 23:00:00,58.0,43.3,30.01,WSW,248,0.0,0.0,58,0.00,,,-99.99,Weather View 32 v70,2013-10-18 06:00:00,
2013-10-17 23:15:00,57.0,43.7,30.01,WSW,248,0.0,0.0,61,0.00,,,-99.99,Weather View 32 v70,2013-10-18 06:15:00,
2013-10-17 23:30:00,57.0,43.7,30.01,WSW,248,0.0,0.0,61,0.00,,,-99.99,Weather View 32 v70,2013-10-18 06:30:00,
2013-10-17 23:45:00,56.0,44.0,30.01,WSW,248,0.0,0.0,64,0.00,,,-99.99,Weather View 32 v70,2013-10-18 06:45:00,